Time;durP1;ratioP1;P1;durP2;ratioP2;P2;SDS_P1;SDS_P2;PMS_P1;PMS_P2;Temp;Humidity;BMP_temperature;BMP_pressure;BME280_temperature;BME280_humidity;BME280_pressure;Samples;Min_cycle;Max_cycle;Signal;HPM_P1;HPM_P2
2023/09/18 00:00:58;;;;;;;4.30;3.90;;;;;;;;;;4991371;28;20631;-79
2023/09/18 00:03:26;;;;;;;4.65;4.22;;;;;;;;;;5000234;28;20219;-80
2023/09/18 00:05:53;;;;;;;5.03;3.80;;;;;;;;;;4992340;28;20224;-79
2023/09/18 00:08:21;;;;;;;3.53;3.20;;;;;;;;;;4995552;28;20212;-80
2023/09/18 00:10:50;;;;;;;5.15;3.80;;;;;;;;;;5008066;28;20204;-79
2023/09/18 00:13:17;;;;;;;3.95;3.65;;;;;;;;;;5017863;28;20224;-79
2023/09/18 00:15:46;;;;;;;4.50;3.65;;;;;;;;;;5018447;28;20211;-80
2023/09/18 00:18:15;;;;;;;4.30;3.85;;;;;;;;;;5009876;28;20214;-80
2023/09/18 00:20:47;;;;;;;4.28;3.88;;;;;;;;;;5010397;28;20203;-81
2023/09/18 00:23:15;;;;;;;4.20;3.80;;;;;;;;;;5017623;28;20231;-80
2023/09/18 00:25:43;;;;;;;5.10;4.65;;;;;;;;;;5017634;28;20734;-81
2023/09/18 00:28:11;;;;;;;5.43;4.00;;;;;;;;;;5017357;28;20622;-80
2023/09/18 00:30:43;;;;;;;6.63;4.53;;;;;;;;;;5019338;28;20215;-79
2023/09/18 00:33:10;;;;;;;4.72;4.03;;;;;;;;;;5005581;28;20228;-80
2023/09/18 00:35:38;;;;;;;4.97;4.47;;;;;;;;;;4995683;28;20235;-78
2023/09/18 00:38:07;;;;;;;7.47;6.70;;;;;;;;;;5016556;28;20243;-80
2023/09/18 00:40:34;;;;;;;6.88;6.13;;;;;;;;;;5017231;28;20572;-79
2023/09/18 00:43:02;;;;;;;6.20;5.57;;;;;;;;;;5001012;28;20227;-81
2023/09/18 00:45:30;;;;;;;5.05;4.55;;;;;;;;;;5022417;28;20274;-80
2023/09/18 00:47:57;;;;;;;4.50;4.10;;;;;;;;;;4999304;28;20207;-79
2023/09/18 00:50:26;;;;;;;5.85;3.50;;;;;;;;;;5008760;28;20628;-81
2023/09/18 00:52:53;;;;;;;4.43;3.97;;;;;;;;;;4999365;28;20246;-78
2023/09/18 00:55:21;;;;;;;4.38;3.97;;;;;;;;;;5017367;28;20212;-79
2023/09/18 00:57:48;;;;;;;4.25;3.90;;;;;;;;;;5008621;28;20208;-78
2023/09/18 01:00:16;;;;;;;5.07;4.05;;;;;;;;;;5020854;28;20206;-80
2023/09/18 01:02:44;;;;;;;4.85;4.35;;;;;;;;;;5020299;28;20270;-78
2023/09/18 01:05:13;;;;;;;4.50;4.10;;;;;;;;;;5008346;28;20677;-81
2023/09/18 01:07:41;;;;;;;4.25;3.85;;;;;;;;;;5015415;28;20261;-81
2023/09/18 01:10:15;;;;;;;4.60;4.03;;;;;;;;;;5015823;28;20570;-80
2023/09/18 01:12:48;;;;;;;4.90;3.80;;;;;;;;;;4997872;28;20249;-80
2023/09/18 01:15:20;;;;;;;5.53;3.50;;;;;;;;;;5011898;28;20204;-80
2023/09/18 01:17:47;;;;;;;3.95;3.17;;;;;;;;;;5011903;28;20667;-78
2023/09/18 01:20:15;;;;;;;4.85;3.67;;;;;;;;;;5015921;28;20211;-78
2023/09/18 01:22:43;;;;;;;4.55;3.53;;;;;;;;;;5016440;28;20227;-80
2023/09/18 01:25:10;;;;;;;5.85;3.33;;;;;;;;;;5014910;28;20223;-80
2023/09/18 01:27:38;;;;;;;5.85;3.45;;;;;;;;;;5009493;28;20660;-81
2023/09/18 01:30:05;;;;;;;3.72;3.42;;;;;;;;;;5011278;28;20212;-80
2023/09/18 01:32:33;;;;;;;3.70;3.40;;;;;;;;;;4993249;28;20227;-79
2023/09/18 01:35:01;;;;;;;5.93;3.38;;;;;;;;;;5022766;28;20215;-81
2023/09/18 01:37:30;;;;;;;4.15;3.38;;;;;;;;;;5009042;28;20302;-80
2023/09/18 01:39:59;;;;;;;5.35;3.70;;;;;;;;;;5014833;28;20290;-80
2023/09/18 01:42:27;;;;;;;4.32;3.40;;;;;;;;;;5015212;28;20274;-80
2023/09/18 01:44:55;;;;;;;4.95;3.40;;;;;;;;;;5008911;28;20324;-80
2023/09/18 01:47:23;;;;;;;4.47;3.63;;;;;;;;;;5008510;28;20212;-81
2023/09/18 01:49:51;;;;;;;4.95;3.88;;;;;;;;;;4998592;28;20231;-81
2023/09/18 01:52:19;;;;;;;5.68;3.50;;;;;;;;;;5023615;28;20218;-80
2023/09/18 01:54:46;;;;;;;3.60;3.30;;;;;;;;;;5015882;28;20207;-80
2023/09/18 01:57:13;;;;;;;5.07;3.45;;;;;;;;;;5016326;28;20622;-80
2023/09/18 01:59:45;;;;;;;7.80;4.65;;;;;;;;;;5009478;28;20223;-80
2023/09/18 02:02:12;;;;;;;6.38;4.32;;;;;;;;;;5015897;28;20231;-81
2023/09/18 02:04:51;;;;;;;5.07;4.05;;;;;;;;;;5000025;28;20219;-81
2023/09/18 02:07:33;;;;;;;5.40;3.72;;;;;;;;;;5010678;28;20195;-80
2023/09/18 02:10:01;;;;;;;5.10;4.20;;;;;;;;;;5014096;28;20204;-81
2023/09/18 02:12:28;;;;;;;4.15;3.75;;;;;;;;;;5003960;28;20219;-80
2023/09/18 02:14:58;;;;;;;5.55;4.15;;;;;;;;;;5008046;28;20204;-80
2023/09/18 02:17:25;;;;;;;4.30;3.88;;;;;;;;;;4991939;28;20238;-81
2023/09/18 02:19:53;;;;;;;4.07;3.60;;;;;;;;;;5014224;28;20214;-82
2023/09/18 02:22:21;;;;;;;4.25;3.47;;;;;;;;;;5008101;28;20273;-82
2023/09/18 02:24:48;;;;;;;5.05;3.75;;;;;;;;;;5016155;28;20338;-81
2023/09/18 02:27:18;;;;;;;14.48;9.20;;;;;;;;;;5008657;28;20214;-81
2023/09/18 02:29:45;;;;;;;10.13;7.53;;;;;;;;;;5008366;28;20209;-78
2023/09/18 02:32:12;;;;;;;6.25;4.55;;;;;;;;;;5013936;28;20223;-80
2023/09/18 02:34:40;;;;;;;11.63;8.77;;;;;;;;;;5015823;28;20671;-80
2023/09/18 02:37:08;;;;;;;5.22;4.10;;;;;;;;;;5006095;28;20210;-81
2023/09/18 02:39:35;;;;;;;9.35;5.05;;;;;;;;;;5010562;28;20699;-80
2023/09/18 02:42:02;;;;;;;6.15;3.97;;;;;;;;;;5009162;28;20690;-80
2023/09/18 02:44:29;;;;;;;6.93;4.25;;;;;;;;;;5003309;28;20258;-80
2023/09/18 02:46:57;;;;;;;4.78;3.95;;;;;;;;;;4994114;28;20207;-80
2023/09/18 02:49:25;;;;;;;7.38;4.40;;;;;;;;;;5014292;28;20207;-81
2023/09/18 02:51:52;;;;;;;5.25;4.15;;;;;;;;;;5012450;28;20227;-81
2023/09/18 02:54:19;;;;;;;5.65;3.72;;;;;;;;;;5008378;28;20207;-80
2023/09/18 02:56:47;;;;;;;4.63;3.95;;;;;;;;;;5008045;28;20227;-80
2023/09/18 02:59:14;;;;;;;5.28;4.03;;;;;;;;;;5014875;28;20196;-80
2023/09/18 03:01:42;;;;;;;7.32;4.22;;;;;;;;;;5007525;28;20208;-81
2023/09/18 03:04:09;;;;;;;5.80;3.83;;;;;;;;;;5014465;28;20230;-81
2023/09/18 03:06:39;;;;;;;4.32;3.55;;;;;;;;;;5009010;28;20231;-80
2023/09/18 03:09:07;;;;;;;6.93;4.07;;;;;;;;;;5012606;28;20206;-81
2023/09/18 03:11:34;;;;;;;9.30;4.57;;;;;;;;;;5011246;28;20212;-81
2023/09/18 03:14:02;;;;;;;6.97;4.10;;;;;;;;;;4996958;28;20287;-79
2023/09/18 03:16:32;;;;;;;8.32;3.70;;;;;;;;;;5008882;28;20296;-81
2023/09/18 03:19:00;;;;;;;5.10;4.03;;;;;;;;;;5013508;28;20581;-81
2023/09/18 03:21:27;;;;;;;4.65;3.80;;;;;;;;;;5008219;28;20218;-80
2023/09/18 03:23:55;;;;;;;4.15;3.78;;;;;;;;;;5013801;28;20223;-79
2023/09/18 03:26:22;;;;;;;5.30;4.18;;;;;;;;;;5015524;28;20281;-80
2023/09/18 03:28:49;;;;;;;5.82;4.60;;;;;;;;;;5007423;28;20204;-79
2023/09/18 03:31:17;;;;;;;6.40;4.00;;;;;;;;;;4989105;28;20725;-80
2023/09/18 03:33:44;;;;;;;5.55;4.53;;;;;;;;;;5006058;28;20227;-80
2023/09/18 03:36:13;;;;;;;5.85;4.22;;;;;;;;;;5008012;28;20705;-80
2023/09/18 03:38:40;;;;;;;5.07;3.60;;;;;;;;;;5002704;28;20640;-80
2023/09/18 03:41:08;;;;;;;8.93;6.70;;;;;;;;;;5002144;28;20261;-81
2023/09/18 03:43:35;;;;;;;5.18;4.05;;;;;;;;;;5010968;28;20273;-80
2023/09/18 03:46:06;;;;;;;5.40;3.50;;;;;;;;;;5014496;28;20219;-80
2023/09/18 03:48:37;;;;;;;6.85;4.22;;;;;;;;;;4990635;28;20245;-80
2023/09/18 03:51:05;;;;;;;7.30;3.60;;;;;;;;;;5018369;28;20660;-79
2023/09/18 03:53:35;;;;;;;6.95;3.50;;;;;;;;;;5014229;28;20719;-82
2023/09/18 03:56:03;;;;;;;5.10;3.50;;;;;;;;;;5013214;28;20330;-80
2023/09/18 03:58:30;;;;;;;3.90;3.50;;;;;;;;;;5015031;28;20208;-80
2023/09/18 04:01:01;;;;;;;6.32;3.50;;;;;;;;;;5006113;28;20204;-79
2023/09/18 04:03:29;;;;;;;4.80;3.58;;;;;;;;;;5010874;28;20318;-79
2023/09/18 04:05:56;;;;;;;6.68;3.45;;;;;;;;;;5010935;28;20230;-80
2023/09/18 04:08:24;;;;;;;5.22;3.25;;;;;;;;;;5025323;28;20728;-80
2023/09/18 04:10:55;;;;;;;8.98;3.63;;;;;;;;;;5017461;28;20263;-79
2023/09/18 04:13:25;;;;;;;6.18;3.17;;;;;;;;;;5011816;28;20291;-79
2023/09/18 04:15:56;;;;;;;8.10;3.40;;;;;;;;;;5016400;28;20262;-80
2023/09/18 04:18:24;;;;;;;7.50;3.35;;;;;;;;;;5000266;28;20211;-80
2023/09/18 04:20:52;;;;;;;12.30;4.00;;;;;;;;;;5016018;28;20212;-80
2023/09/18 04:23:23;;;;;;;9.25;3.78;;;;;;;;;;5017786;28;20274;-80
2023/09/18 04:25:51;;;;;;;10.38;3.50;;;;;;;;;;5012378;28;20586;-79
2023/09/18 04:28:20;;;;;;;9.45;3.22;;;;;;;;;;5015196;28;20211;-79
2023/09/18 04:30:47;;;;;;;14.70;3.75;;;;;;;;;;5017239;28;20210;-81
2023/09/18 04:33:15;;;;;;;11.93;3.40;;;;;;;;;;4984137;28;20228;-78
2023/09/18 04:35:44;;;;;;;10.75;3.30;;;;;;;;;;5001550;28;20220;-80
2023/09/18 04:38:11;;;;;;;8.75;3.85;;;;;;;;;;5004619;28;20204;-81
2023/09/18 04:40:39;;;;;;;7.72;4.70;;;;;;;;;;4992019;28;20250;-80
2023/09/18 04:43:08;;;;;;;11.77;4.97;;;;;;;;;;5004898;28;20310;-80
2023/09/18 04:45:36;;;;;;;8.77;3.47;;;;;;;;;;4993339;28;20220;-82
2023/09/18 04:48:05;;;;;;;9.18;3.03;;;;;;;;;;5014743;28;20261;-79
2023/09/18 04:50:33;;;;;;;6.10;2.88;;;;;;;;;;5011622;28;20235;-80
2023/09/18 04:53:01;;;;;;;6.15;2.70;;;;;;;;;;5014314;28;20277;-80
2023/09/18 04:55:29;;;;;;;8.35;2.95;;;;;;;;;;5003220;28;20209;-80
2023/09/18 04:57:58;;;;;;;5.90;2.95;;;;;;;;;;5007485;28;20217;-79
2023/09/18 05:00:26;;;;;;;7.00;2.63;;;;;;;;;;5015488;28;20215;-81
2023/09/18 05:02:54;;;;;;;8.82;2.88;;;;;;;;;;5013713;28;20224;-79
2023/09/18 05:05:21;;;;;;;10.35;2.88;;;;;;;;;;5014931;28;20231;-81
2023/09/18 05:07:49;;;;;;;10.00;3.15;;;;;;;;;;4991667;28;20207;-81
2023/09/18 05:10:16;;;;;;;6.00;3.00;;;;;;;;;;5006488;28;20655;-81
2023/09/18 05:12:44;;;;;;;5.90;2.55;;;;;;;;;;5009385;28;20220;-79
2023/09/18 05:15:15;;;;;;;6.70;2.72;;;;;;;;;;4994739;28;20227;-79
2023/09/18 05:17:42;;;;;;;10.20;2.85;;;;;;;;;;5015372;28;20207;-79
2023/09/18 05:20:15;;;;;;;9.05;3.10;;;;;;;;;;5013327;28;20208;-81
2023/09/18 05:22:43;;;;;;;13.73;5.28;;;;;;;;;;5008704;28;20230;-79
2023/09/18 05:25:11;;;;;;;7.70;2.83;;;;;;;;;;4988328;28;20711;-79
2023/09/18 05:27:43;;;;;;;8.02;2.45;;;;;;;;;;4988847;28;20671;-79
2023/09/18 05:30:16;;;;;;;6.32;2.50;;;;;;;;;;5011496;28;20207;-78
2023/09/18 05:32:45;;;;;;;6.25;2.10;;;;;;;;;;5008812;28;20277;-80
2023/09/18 05:35:13;;;;;;;5.43;1.92;;;;;;;;;;4999274;28;20207;-79
2023/09/18 05:37:41;;;;;;;8.40;2.47;;;;;;;;;;4994773;28;20210;-80
2023/09/18 05:40:10;;;;;;;12.18;2.70;;;;;;;;;;5002159;28;20295;-80
2023/09/18 05:42:38;;;;;;;7.65;2.10;;;;;;;;;;5000872;28;20216;-80
2023/09/18 05:45:06;;;;;;;5.15;2.10;;;;;;;;;;5012014;28;20659;-79
2023/09/18 05:47:33;;;;;;;6.55;2.58;;;;;;;;;;5005491;28;20204;-81
2023/09/18 05:50:01;;;;;;;9.30;2.67;;;;;;;;;;5014128;28;20204;-80
2023/09/18 05:52:29;;;;;;;4.15;1.92;;;;;;;;;;5004507;28;20231;-81
2023/09/18 05:54:56;;;;;;;4.45;2.00;;;;;;;;;;4991918;28;20206;-79
2023/09/18 05:57:23;;;;;;;5.25;2.17;;;;;;;;;;5010632;28;20259;-80
2023/09/18 05:59:51;;;;;;;3.90;2.20;;;;;;;;;;5007352;28;20211;-81
2023/09/18 06:02:20;;;;;;;6.50;2.33;;;;;;;;;;5008900;28;20228;-81
2023/09/18 06:04:48;;;;;;;6.85;2.20;;;;;;;;;;5007128;28;20204;-81
2023/09/18 06:07:15;;;;;;;7.63;1.90;;;;;;;;;;5007617;28;20695;-81
2023/09/18 06:09:43;;;;;;;5.45;2.05;;;;;;;;;;5003174;28;20627;-81
2023/09/18 06:12:10;;;;;;;2.65;1.77;;;;;;;;;;5010928;28;20776;-79
2023/09/18 06:14:38;;;;;;;5.18;2.15;;;;;;;;;;5012055;28;20210;-80
2023/09/18 06:17:06;;;;;;;7.05;2.40;;;;;;;;;;4992655;28;20204;-80
2023/09/18 06:19:33;;;;;;;3.92;2.10;;;;;;;;;;4986876;28;20210;-79
2023/09/18 06:22:01;;;;;;;8.45;1.90;;;;;;;;;;5009976;28;20279;-80
2023/09/18 06:24:29;;;;;;;6.07;2.10;;;;;;;;;;5011554;28;20207;-80
2023/09/18 06:26:56;;;;;;;6.43;2.33;;;;;;;;;;5005640;28;20322;-78
2023/09/18 06:29:23;;;;;;;6.65;1.98;;;;;;;;;;4999408;28;20235;-80
2023/09/18 06:31:51;;;;;;;7.05;2.20;;;;;;;;;;5003373;28;20225;-79
2023/09/18 06:34:18;;;;;;;5.07;2.20;;;;;;;;;;5007390;28;20203;-78
2023/09/18 06:36:47;;;;;;;6.10;1.70;;;;;;;;;;5010047;28;20207;-79
2023/09/18 06:39:15;;;;;;;6.28;2.10;;;;;;;;;;5008608;28;20212;-81
2023/09/18 06:41:42;;;;;;;8.10;1.83;;;;;;;;;;5011297;28;20218;-79
2023/09/18 06:44:09;;;;;;;7.30;2.17;;;;;;;;;;5011701;28;20234;-80
2023/09/18 06:46:37;;;;;;;3.72;1.75;;;;;;;;;;5012855;28;20223;-80
2023/09/18 06:49:04;;;;;;;6.30;2.10;;;;;;;;;;5006480;28;20208;-78
2023/09/18 06:51:31;;;;;;;7.70;2.20;;;;;;;;;;5004685;28;20200;-80
2023/09/18 06:54:09;;;;;;;8.75;2.13;;;;;;;;;;5007489;28;20210;-78
2023/09/18 06:56:37;;;;;;;4.85;1.85;;;;;;;;;;5009620;28;20211;-79
2023/09/18 06:59:04;;;;;;;8.27;2.08;;;;;;;;;;5008207;28;20211;-80
2023/09/18 07:01:32;;;;;;;9.27;2.05;;;;;;;;;;5012144;28;20584;-79
2023/09/18 07:04:00;;;;;;;5.35;1.63;;;;;;;;;;5008283;28;20208;-79
2023/09/18 07:06:28;;;;;;;4.43;1.98;;;;;;;;;;5003239;28;20223;-80
2023/09/18 07:08:57;;;;;;;3.20;1.48;;;;;;;;;;5007339;28;20671;-80
2023/09/18 07:11:25;;;;;;;4.45;1.48;;;;;;;;;;5007739;28;20236;-79
2023/09/18 07:13:52;;;;;;;7.28;2.00;;;;;;;;;;5005795;28;20302;-78
2023/09/18 07:16:20;;;;;;;4.63;1.77;;;;;;;;;;5008847;28;20261;-81
2023/09/18 07:18:47;;;;;;;7.13;1.80;;;;;;;;;;5009335;28;20203;-80
2023/09/18 07:21:15;;;;;;;6.38;2.22;;;;;;;;;;5010823;28;20215;-80
2023/09/18 07:23:45;;;;;;;5.10;1.90;;;;;;;;;;5010052;28;20219;-78
2023/09/18 07:26:12;;;;;;;5.57;2.05;;;;;;;;;;5008703;28;20223;-81
2023/09/18 07:28:41;;;;;;;4.45;1.80;;;;;;;;;;5008303;28;20204;-78
2023/09/18 07:31:11;;;;;;;11.00;4.55;;;;;;;;;;5008842;28;20207;-79
2023/09/18 07:33:39;;;;;;;5.82;1.77;;;;;;;;;;5011356;28;20678;-78
2023/09/18 07:36:07;;;;;;;5.03;1.58;;;;;;;;;;5015628;28;20218;-80
2023/09/18 07:38:34;;;;;;;6.15;1.50;;;;;;;;;;5014556;28;20214;-81
2023/09/18 07:41:02;;;;;;;2.47;1.35;;;;;;;;;;5011907;28;20326;-80
2023/09/18 07:43:29;;;;;;;4.03;1.75;;;;;;;;;;5014315;28;20663;-79
2023/09/18 07:45:58;;;;;;;5.10;1.65;;;;;;;;;;5014438;28;20235;-80
2023/09/18 07:48:25;;;;;;;5.35;1.80;;;;;;;;;;5014368;28;20211;-80
2023/09/18 07:50:54;;;;;;;6.10;2.03;;;;;;;;;;4997783;28;20345;-78
2023/09/18 07:53:22;;;;;;;4.95;1.90;;;;;;;;;;5011566;28;20683;-80
2023/09/18 07:55:56;;;;;;;6.05;2.15;;;;;;;;;;4991898;28;20196;-81
2023/09/18 07:58:27;;;;;;;7.03;1.88;;;;;;;;;;5010670;28;20234;-82
2023/09/18 08:00:57;;;;;;;9.93;1.98;;;;;;;;;;5010963;28;20640;-80
2023/09/18 08:03:25;;;;;;;3.72;1.40;;;;;;;;;;4998163;28;20613;-82
2023/09/18 08:05:53;;;;;;;4.47;1.30;;;;;;;;;;5014237;28;20235;-79
2023/09/18 08:08:21;;;;;;;5.57;1.27;;;;;;;;;;5010870;28;20207;-80
2023/09/18 08:10:49;;;;;;;3.45;1.40;;;;;;;;;;5006749;28;20640;-82
2023/09/18 08:13:17;;;;;;;2.67;1.30;;;;;;;;;;5007879;28;20585;-80
2023/09/18 08:15:45;;;;;;;4.07;1.88;;;;;;;;;;5006725;28;20199;-79
2023/09/18 08:18:16;;;;;;;2.40;1.42;;;;;;;;;;5011844;28;20211;-82
2023/09/18 08:20:44;;;;;;;2.13;1.08;;;;;;;;;;5011582;28;20291;-80
2023/09/18 08:23:12;;;;;;;1.92;1.55;;;;;;;;;;5008086;28;20607;-79
2023/09/18 08:25:40;;;;;;;2.47;1.08;;;;;;;;;;5011265;28;20287;-80
2023/09/18 08:28:08;;;;;;;2.42;0.90;;;;;;;;;;5013967;28;20255;-79
2023/09/18 08:30:37;;;;;;;3.17;1.05;;;;;;;;;;5008876;28;20208;-80
2023/09/18 08:33:04;;;;;;;2.92;1.27;;;;;;;;;;4994133;28;20223;-78
2023/09/18 08:35:32;;;;;;;1.08;0.98;;;;;;;;;;5011879;28;20274;-79
2023/09/18 08:38:00;;;;;;;2.10;1.05;;;;;;;;;;5013596;28;20234;-80
2023/09/18 08:40:28;;;;;;;3.53;1.50;;;;;;;;;;5006165;28;20199;-81
2023/09/18 08:42:56;;;;;;;1.20;1.10;;;;;;;;;;4999151;28;20231;-79
2023/09/18 08:45:28;;;;;;;1.83;1.00;;;;;;;;;;5008594;28;20258;-80
2023/09/18 08:47:56;;;;;;;2.40;1.13;;;;;;;;;;5011869;28;20231;-78
2023/09/18 08:50:25;;;;;;;2.38;1.13;;;;;;;;;;4992874;28;20211;-80
2023/09/18 08:52:52;;;;;;;1.00;0.82;;;;;;;;;;5013608;28;20243;-79
2023/09/18 08:55:20;;;;;;;0.90;0.88;;;;;;;;;;5006627;28;20250;-79
2023/09/18 08:57:49;;;;;;;3.38;0.98;;;;;;;;;;5008925;28;20582;-81
2023/09/18 09:00:19;;;;;;;1.70;1.10;;;;;;;;;;5010357;28;20207;-78
2023/09/18 09:02:50;;;;;;;1.15;0.90;;;;;;;;;;4997117;28;20227;-79
2023/09/18 09:05:18;;;;;;;1.20;1.10;;;;;;;;;;5013838;28;20211;-80
2023/09/18 09:07:46;;;;;;;2.05;1.17;;;;;;;;;;5013923;28;20223;-82
2023/09/18 09:10:13;;;;;;;2.25;1.10;;;;;;;;;;5014156;28;20199;-79
2023/09/18 09:12:48;;;;;;;1.98;1.20;;;;;;;;;;5011881;28;20255;-80
2023/09/18 09:15:16;;;;;;;2.08;0.90;;;;;;;;;;4996008;28;20235;-81
2023/09/18 09:17:44;;;;;;;1.85;1.00;;;;;;;;;;5008350;28;20203;-81
2023/09/18 09:20:12;;;;;;;1.35;1.23;;;;;;;;;;5007615;28;20565;-80
2023/09/18 09:22:40;;;;;;;3.75;1.17;;;;;;;;;;5004801;28;20615;-81
2023/09/18 09:25:28;;;;;;;1.45;1.35;;;;;;;;;;4997258;28;20246;-80
2023/09/18 09:27:56;;;;;;;2.15;1.00;;;;;;;;;;5009374;28;20774;-81
2023/09/18 09:30:25;;;;;;;2.55;1.65;;;;;;;;;;4997835;28;20220;-82
2023/09/18 09:32:53;;;;;;;1.98;1.10;;;;;;;;;;5014139;28;20227;-81
2023/09/18 09:35:27;;;;;;;2.22;1.10;;;;;;;;;;5010751;28;20230;-82
2023/09/18 09:37:56;;;;;;;2.08;0.95;;;;;;;;;;5009835;28;20209;-79
2023/09/18 09:40:25;;;;;;;3.00;1.10;;;;;;;;;;5013865;28;20211;-79
2023/09/18 09:43:00;;;;;;;1.85;1.00;;;;;;;;;;5011548;28;20231;-81
2023/09/18 09:45:38;;;;;;;2.70;1.30;;;;;;;;;;5010794;28;20230;-80
2023/09/18 09:48:06;;;;;;;2.55;1.13;;;;;;;;;;5009346;28;20223;-81
2023/09/18 09:50:48;;;;;;;2.28;1.20;;;;;;;;;;5009472;28;20208;-80
2023/09/18 09:53:16;;;;;;;3.55;1.40;;;;;;;;;;4990658;28;20230;-78
2023/09/18 09:55:43;;;;;;;1.83;1.20;;;;;;;;;;5011367;28;20290;-81
2023/09/18 09:58:13;;;;;;;1.40;1.30;;;;;;;;;;5012878;28;20222;-78
2023/09/18 10:00:48;;;;;;;3.20;1.15;;;;;;;;;;5013527;28;20308;-81
2023/09/18 10:03:18;;;;;;;2.53;1.40;;;;;;;;;;5006217;28;20789;-81
2023/09/18 10:05:48;;;;;;;1.88;1.45;;;;;;;;;;5011620;28;20288;-81
2023/09/18 10:08:17;;;;;;;1.75;1.15;;;;;;;;;;5009129;28;20243;-80
2023/09/18 10:10:51;;;;;;;1.40;1.30;;;;;;;;;;5010221;28;20302;-77
2023/09/18 10:13:43;;;;;;;2.08;1.20;;;;;;;;;;5007763;28;20272;-81
2023/09/18 10:16:11;;;;;;;4.63;1.58;;;;;;;;;;5012199;28;20207;-79
2023/09/18 10:18:42;;;;;;;3.75;1.30;;;;;;;;;;4986117;28;20208;-80
2023/09/18 10:21:24;;;;;;;2.00;1.40;;;;;;;;;;5011605;28;20204;-80
2023/09/18 10:24:04;;;;;;;2.67;1.60;;;;;;;;;;5010238;28;20227;-78
2023/09/18 10:26:33;;;;;;;3.75;1.45;;;;;;;;;;4991985;28;20655;-80
2023/09/18 10:29:03;;;;;;;3.30;1.27;;;;;;;;;;5007674;28;20207;-79
2023/09/18 10:31:32;;;;;;;4.00;1.33;;;;;;;;;;5011634;28;20207;-79
2023/09/18 10:34:01;;;;;;;3.17;2.33;;;;;;;;;;5009283;28;20771;-79
2023/09/18 10:36:28;;;;;;;2.22;1.73;;;;;;;;;;5005736;28;20231;-79
2023/09/18 10:39:01;;;;;;;2.97;1.70;;;;;;;;;;5007186;28;20211;-80
2023/09/18 10:41:28;;;;;;;4.40;3.05;;;;;;;;;;5009178;28;20225;-78
2023/09/18 10:43:57;;;;;;;3.45;1.67;;;;;;;;;;5011612;28;20639;-78
2023/09/18 10:46:28;;;;;;;2.35;1.55;;;;;;;;;;5011623;28;20207;-79
2023/09/18 10:48:56;;;;;;;3.30;2.15;;;;;;;;;;5006571;28;20203;-78
2023/09/18 10:51:24;;;;;;;2.83;1.60;;;;;;;;;;4990894;28;20214;-80
2023/09/18 10:53:54;;;;;;;2.90;1.73;;;;;;;;;;4989074;28;20692;-78
2023/09/18 10:56:22;;;;;;;4.68;2.40;;;;;;;;;;4996545;28;20209;-79
2023/09/18 10:58:59;;;;;;;5.45;3.05;;;;;;;;;;5008781;28;20267;-79
2023/09/18 11:01:28;;;;;;;4.88;2.70;;;;;;;;;;4988720;28;20211;-79
2023/09/18 11:04:01;;;;;;;4.00;2.30;;;;;;;;;;5010677;28;20314;-80
2023/09/18 11:06:29;;;;;;;3.60;1.73;;;;;;;;;;5008609;28;20215;-79
2023/09/18 11:09:01;;;;;;;3.08;2.00;;;;;;;;;;5012644;28;20671;-80
2023/09/18 11:11:29;;;;;;;4.20;2.50;;;;;;;;;;5012526;28;20674;-77
2023/09/18 11:13:57;;;;;;;3.33;1.60;;;;;;;;;;4997627;28;20716;-78
2023/09/18 11:16:27;;;;;;;2.63;1.80;;;;;;;;;;5012818;28;20211;-77
2023/09/18 11:19:02;;;;;;;2.55;1.80;;;;;;;;;;5010991;28;20219;-78
2023/09/18 11:21:30;;;;;;;1.75;1.55;;;;;;;;;;5014660;28;20209;-79
2023/09/18 11:24:11;;;;;;;2.08;1.67;;;;;;;;;;4994740;28;20246;-80
2023/09/18 11:26:41;;;;;;;3.05;1.85;;;;;;;;;;5010116;28;20240;-78
2023/09/18 11:29:11;;;;;;;2.85;1.92;;;;;;;;;;5013038;28;20202;-78
2023/09/18 11:31:53;;;;;;;2.92;1.80;;;;;;;;;;5012628;28;20211;-78
2023/09/18 11:34:21;;;;;;;5.00;1.70;;;;;;;;;;5009144;28;20217;-79
2023/09/18 11:36:49;;;;;;;3.88;1.77;;;;;;;;;;5009437;28;20206;-77
2023/09/18 11:39:37;;;;;;;2.42;1.75;;;;;;;;;;5011798;28;20208;-78
2023/09/18 11:42:28;;;;;;;3.80;2.13;;;;;;;;;;5013312;28;20220;-79
2023/09/18 11:44:58;;;;;;;3.97;2.08;;;;;;;;;;5010573;28;20199;-79
2023/09/18 11:47:27;;;;;;;3.67;1.65;;;;;;;;;;5008099;28;20224;-80
2023/09/18 11:50:00;;;;;;;2.65;1.85;;;;;;;;;;5009593;28;20307;-78
2023/09/18 11:52:31;;;;;;;2.65;1.90;;;;;;;;;;5011199;28;20314;-79
2023/09/18 11:54:59;;;;;;;2.42;1.80;;;;;;;;;;5011776;28;20200;-80
2023/09/18 11:57:28;;;;;;;3.70;1.80;;;;;;;;;;4995536;28;20211;-78
2023/09/18 12:00:10;;;;;;;3.60;2.10;;;;;;;;;;5012558;28;20207;-79
2023/09/18 12:02:41;;;;;;;2.78;1.98;;;;;;;;;;5011681;28;20735;-79
2023/09/18 12:05:15;;;;;;;3.05;1.98;;;;;;;;;;5011966;28;20207;-79
2023/09/18 12:07:45;;;;;;;3.38;2.38;;;;;;;;;;5010414;28;20285;-80
2023/09/18 12:10:14;;;;;;;4.05;2.10;;;;;;;;;;5012422;28;20249;-79
2023/09/18 12:12:42;;;;;;;2.72;2.05;;;;;;;;;;5006759;28;20250;-79
2023/09/18 12:15:14;;;;;;;3.80;2.10;;;;;;;;;;5014125;28;20287;-80
2023/09/18 12:17:41;;;;;;;4.55;1.95;;;;;;;;;;5009270;28;20204;-79
2023/09/18 12:20:18;;;;;;;2.10;1.90;;;;;;;;;;5005773;28;20679;-80
2023/09/18 12:22:50;;;;;;;2.47;1.90;;;;;;;;;;5009975;28;20302;-78
2023/09/18 12:25:23;;;;;;;2.97;2.17;;;;;;;;;;5010873;28;20726;-77
2023/09/18 12:27:55;;;;;;;3.55;2.20;;;;;;;;;;5011407;28;20220;-79
2023/09/18 12:30:23;;;;;;;3.08;2.30;;;;;;;;;;4990808;28;20582;-80
2023/09/18 12:32:51;;;;;;;3.03;1.98;;;;;;;;;;4999805;28;20311;-79
2023/09/18 12:35:19;;;;;;;2.90;1.77;;;;;;;;;;5016466;28;20204;-80
2023/09/18 12:37:46;;;;;;;1.80;1.70;;;;;;;;;;5001054;28;20210;-78
2023/09/18 12:40:27;;;;;;;1.80;1.70;;;;;;;;;;5013463;28;20211;-79
2023/09/18 12:42:58;;;;;;;2.03;1.52;;;;;;;;;;5012171;28;20231;-78
2023/09/18 12:45:25;;;;;;;2.55;2.00;;;;;;;;;;5014865;28;20207;-80
2023/09/18 12:47:54;;;;;;;1.77;1.60;;;;;;;;;;5007108;28;20228;-80
2023/09/18 12:50:22;;;;;;;2.85;1.60;;;;;;;;;;5010661;28;20633;-80
2023/09/18 12:52:49;;;;;;;1.70;1.55;;;;;;;;;;4997187;28;20219;-80
2023/09/18 12:55:26;;;;;;;2.15;1.65;;;;;;;;;;5015799;28;20203;-78
2023/09/18 12:57:55;;;;;;;3.30;1.52;;;;;;;;;;5013600;28;20616;-82
2023/09/18 13:00:26;;;;;;;3.30;1.60;;;;;;;;;;4997003;28;20646;-78
2023/09/18 13:02:57;;;;;;;2.47;1.77;;;;;;;;;;5012932;28;20231;-78
2023/09/18 13:05:32;;;;;;;2.63;1.40;;;;;;;;;;5010668;28;20207;-81
2023/09/18 13:08:04;;;;;;;3.45;1.88;;;;;;;;;;5013153;28;20227;-78
2023/09/18 13:10:41;;;;;;;1.27;1.17;;;;;;;;;;5014349;28;20208;-80
2023/09/18 13:13:16;;;;;;;2.63;1.70;;;;;;;;;;5009525;28;20231;-80
2023/09/18 13:15:45;;;;;;;3.42;1.90;;;;;;;;;;5010309;28;20203;-78
2023/09/18 13:18:13;;;;;;;2.45;1.90;;;;;;;;;;5007197;28;20215;-79
2023/09/18 13:20:41;;;;;;;2.42;1.63;;;;;;;;;;5013332;28;20786;-82
2023/09/18 13:23:08;;;;;;;3.58;1.55;;;;;;;;;;5012036;28;20231;-81
2023/09/18 13:25:38;;;;;;;4.57;1.98;;;;;;;;;;5013155;28;20249;-79
2023/09/18 13:28:06;;;;;;;1.55;1.40;;;;;;;;;;5013961;28;20600;-80
2023/09/18 13:30:35;;;;;;;2.28;1.40;;;;;;;;;;5016834;28;20203;-78
2023/09/18 13:33:04;;;;;;;2.08;1.70;;;;;;;;;;5013602;28;20228;-80
2023/09/18 13:35:31;;;;;;;3.60;1.73;;;;;;;;;;5006655;28;20589;-79
2023/09/18 13:37:59;;;;;;;1.83;1.50;;;;;;;;;;5012674;28;20703;-80
2023/09/18 13:40:27;;;;;;;2.17;1.50;;;;;;;;;;4996642;28;20211;-79
2023/09/18 13:42:54;;;;;;;4.97;1.73;;;;;;;;;;5013620;28;20223;-80
2023/09/18 13:45:22;;;;;;;2.72;1.80;;;;;;;;;;4994189;28;20285;-80
2023/09/18 13:47:49;;;;;;;2.25;1.40;;;;;;;;;;5011872;28;20700;-81
2023/09/18 13:50:17;;;;;;;1.70;1.52;;;;;;;;;;5012923;28;20219;-79
2023/09/18 13:52:45;;;;;;;4.80;1.75;;;;;;;;;;5012719;28;20594;-81
2023/09/18 13:55:12;;;;;;;2.22;1.40;;;;;;;;;;5010811;28;20204;-80
2023/09/18 13:57:40;;;;;;;1.73;1.60;;;;;;;;;;5012285;28;20295;-80
2023/09/18 14:00:11;;;;;;;2.55;1.50;;;;;;;;;;5010829;28;20212;-80
2023/09/18 14:02:39;;;;;;;1.75;1.50;;;;;;;;;;4998624;28;20944;-77
2023/09/18 14:05:08;;;;;;;2.50;1.40;;;;;;;;;;5004361;28;20243;-80
2023/09/18 14:07:38;;;;;;;2.25;1.75;;;;;;;;;;5013457;28;20215;-80
2023/09/18 14:10:07;;;;;;;1.85;1.60;;;;;;;;;;5011358;28;20236;-78
2023/09/18 14:12:34;;;;;;;2.85;1.60;;;;;;;;;;5010124;28;20224;-80
2023/09/18 14:15:03;;;;;;;2.60;1.73;;;;;;;;;;4988334;28;20204;-79
2023/09/18 14:17:30;;;;;;;2.60;1.60;;;;;;;;;;5011814;28;20207;-79
2023/09/18 14:19:58;;;;;;;3.58;1.75;;;;;;;;;;5016631;28;20235;-78
2023/09/18 14:22:29;;;;;;;2.58;2.00;;;;;;;;;;5013573;28;20223;-79
2023/09/18 14:24:57;;;;;;;3.78;1.90;;;;;;;;;;5009515;28;20200;-79
2023/09/18 14:27:24;;;;;;;1.90;1.70;;;;;;;;;;5012715;28;20207;-81
2023/09/18 14:29:51;;;;;;;2.40;1.60;;;;;;;;;;5010975;28;20277;-82
2023/09/18 14:32:18;;;;;;;2.42;1.75;;;;;;;;;;5012242;28;20230;-81
2023/09/18 14:34:46;;;;;;;4.38;1.70;;;;;;;;;;5009847;28;20271;-79
2023/09/18 14:37:14;;;;;;;2.10;1.50;;;;;;;;;;5011632;28;20211;-79
2023/09/18 14:39:41;;;;;;;1.95;1.40;;;;;;;;;;4993354;28;20227;-78
2023/09/18 14:42:10;;;;;;;2.22;1.70;;;;;;;;;;5012656;28;20228;-78
2023/09/18 14:44:43;;;;;;;2.80;1.67;;;;;;;;;;5011611;28;20243;-79
2023/09/18 14:47:12;;;;;;;2.28;1.60;;;;;;;;;;5011335;28;20214;-79
2023/09/18 14:49:39;;;;;;;1.63;1.52;;;;;;;;;;5012226;28;20233;-79
2023/09/18 14:52:07;;;;;;;2.45;2.00;;;;;;;;;;5012991;28;20618;-80
2023/09/18 14:54:35;;;;;;;2.35;1.58;;;;;;;;;;5013229;28;20208;-78